createdAt,value
2022-09-14T03:01:28.471Z,100468.16
2022-09-14T03:03:55.251Z,100472.06
2022-09-14T03:06:22.598Z,100466.91
2022-09-14T03:08:50.275Z,100459.03
2022-09-14T03:11:17.015Z,100468.84
2022-09-14T03:13:44.036Z,100466.34
2022-09-14T03:16:17.323Z,100458.47
2022-09-14T03:18:44.296Z,100460.44
2022-09-14T03:21:13.519Z,100463.91
2022-09-14T03:23:45.149Z,100462.22
2022-09-14T03:26:17.716Z,100457.84
2022-09-14T03:28:45.179Z,100459.00
2022-09-14T03:31:13.233Z,100454.28
2022-09-14T03:33:40.475Z,100447.22
2022-09-14T03:36:19.055Z,100447.38
2022-09-14T03:38:47.475Z,100461.78
2022-09-14T03:41:15.199Z,100460.72
2022-09-14T03:43:43.439Z,100448.19
2022-09-14T03:46:13.036Z,100458.31
2022-09-14T03:48:40.328Z,100451.66
2022-09-14T03:51:09.218Z,100458.56
2022-09-14T03:53:36.664Z,100453.84
2022-09-14T03:56:11.625Z,100448.28
2022-09-14T03:58:38.568Z,100461.41
2022-09-14T04:01:07.210Z,100456.78
2022-09-14T04:03:35.805Z,100458.84
2022-09-14T04:06:05.502Z,100449.81
2022-09-14T04:08:37.479Z,100442.03
2022-09-14T04:11:19.441Z,100441.66
2022-09-14T04:13:48.366Z,100449.69
2022-09-14T04:16:15.810Z,100443.06
2022-09-14T04:18:42.835Z,100444.22
2022-09-14T04:21:15.934Z,100444.66
2022-09-14T04:24:19.283Z,100445.91
2022-09-14T04:26:32.593Z,100453.09
2022-09-14T04:28:59.703Z,100447.97
2022-09-14T04:31:26.592Z,100442.84
2022-09-14T04:33:56.330Z,100430.59
2022-09-14T04:36:30.912Z,100432.13
2022-09-14T04:39:00.079Z,100434.19
2022-09-14T04:41:27.796Z,100431.03
2022-09-14T04:43:55.974Z,100423.88
2022-09-14T04:46:30.450Z,100423.00
2022-09-14T04:48:57.805Z,100425.34
2022-09-14T04:51:27.352Z,100419.84
2022-09-14T04:53:56.509Z,100421.09
2022-09-14T04:56:24.667Z,100418.31
2022-09-14T04:58:58.679Z,100420.75
2022-09-14T05:01:28.741Z,100423.53
2022-09-14T05:03:56.037Z,100419.94
2022-09-14T05:06:25.720Z,100420.75
2022-09-14T05:08:53.325Z,100417.59
2022-09-14T05:11:25.505Z,100412.44
2022-09-14T05:13:52.276Z,100416.72
2022-09-14T05:16:21.866Z,100412.78
2022-09-14T05:18:49.798Z,100410.47
2022-09-14T05:21:18.922Z,100423.16
2022-09-14T05:23:46.667Z,100421.19
2022-09-14T05:26:14.290Z,100430.31
2022-09-14T05:28:41.335Z,100431.13
2022-09-14T05:31:10.199Z,100429.13
2022-09-14T05:33:37.135Z,100432.28
2022-09-14T05:36:06.105Z,100423.88
2022-09-14T05:38:35.097Z,100427.84
2022-09-14T05:41:02.304Z,100412.78
2022-09-14T05:43:30.724Z,100415.19
2022-09-14T05:46:02.542Z,100415.25
2022-09-14T05:48:36.291Z,100424.84
2022-09-14T05:51:10.261Z,100431.19
2022-09-14T05:53:36.996Z,100428.06
2022-09-14T05:56:09.331Z,100434.44
2022-09-14T05:58:37.412Z,100437.63
2022-09-14T06:01:07.857Z,100441.66
2022-09-14T06:03:34.713Z,100441.66
2022-09-14T06:06:01.923Z,100441.66
2022-09-14T06:08:29.094Z,100442.47
2022-09-14T06:10:55.721Z,100429.75
2022-09-14T06:13:23.466Z,100440.75
2022-09-14T06:15:50.296Z,100443.53
2022-09-14T06:18:17.271Z,100449.16
2022-09-14T06:20:52.230Z,100459.91
2022-09-14T06:23:19.036Z,100456.78
2022-09-14T06:25:45.928Z,100457.59
2022-09-14T06:28:12.864Z,100449.59
2022-09-14T06:30:44.046Z,100455.16
2022-09-14T06:33:10.812Z,100457.13
2022-09-14T06:35:37.409Z,100463.03
2022-09-14T06:38:04.160Z,100464.56
2022-09-14T06:40:30.892Z,100460.66
2022-09-14T06:43:02.154Z,100468.16
2022-09-14T06:45:36.788Z,100457.06
2022-09-14T06:48:03.395Z,100469.41
2022-09-14T06:50:29.967Z,100466.25
2022-09-14T06:52:56.565Z,100462.31
2022-09-14T06:55:23.131Z,100467.16
2022-09-14T06:57:49.741Z,100476.34
2022-09-14T07:00:16.833Z,100471.22
2022-09-14T07:02:43.803Z,100465.69
2022-09-14T07:05:10.656Z,100463.66
2022-09-14T07:07:37.253Z,100469.94
2022-09-14T07:10:04.192Z,100467.59
2022-09-14T07:12:30.781Z,100466.44
2022-09-14T07:14:57.591Z,100478.78
2022-09-14T07:17:24.225Z,100486.38
2022-09-14T07:19:51.856Z,100481.31
2022-09-14T07:22:18.467Z,100475.41
2022-09-14T07:24:45.096Z,100478.28
2022-09-14T07:27:11.711Z,100480.41
2022-09-14T07:29:38.595Z,100478.13
2022-09-14T07:32:05.424Z,100483.41
2022-09-14T07:34:32.648Z,100488.66
2022-09-14T07:36:59.535Z,100487.50
2022-09-14T07:39:26.297Z,100485.88
2022-09-14T07:41:53.227Z,100483.09
2022-09-14T07:44:19.823Z,100484.28
2022-09-14T07:46:47.181Z,100486.25
2022-09-14T07:49:15.592Z,100484.72
2022-09-14T07:51:42.717Z,100485.16
2022-09-14T07:54:12.431Z,100480.41
2022-09-14T07:56:39.869Z,100482.81
2022-09-14T07:59:31.307Z,100489.69
2022-09-14T08:01:53.440Z,100496.91
2022-09-14T08:04:20.867Z,100491.44
2022-09-14T08:06:47.516Z,100500.59
2022-09-14T08:09:14.360Z,100502.56
2022-09-14T08:11:40.984Z,100504.22
2022-09-14T08:14:10.378Z,100490.03
2022-09-14T08:16:41.360Z,100493.25
2022-09-14T08:19:12.847Z,100495.66
2022-09-14T08:21:44.113Z,100488.56
2022-09-14T08:24:18.865Z,100496.59
2022-09-14T08:26:46.958Z,100499.06
2022-09-14T08:29:15.248Z,100499.06
2022-09-14T08:31:43.333Z,100490.72
2022-09-14T08:34:10.219Z,100480.88
2022-09-14T08:36:39.263Z,100488.94
2022-09-14T08:39:10.535Z,100489.84
2022-09-14T08:41:53.477Z,100488.88
2022-09-14T08:44:37.105Z,100481.53
2022-09-14T08:47:32.347Z,100479.28
2022-09-14T08:49:58.883Z,100486.47
2022-09-14T08:52:34.411Z,100481.47
2022-09-14T08:55:12.171Z,100485.97
2022-09-14T08:57:44.924Z,100488.00
2022-09-14T09:00:17.704Z,100478.16
2022-09-14T09:03:00.649Z,100484.13
2022-09-14T09:05:42.072Z,100474.94
2022-09-14T09:08:36.697Z,100486.16
2022-09-14T09:11:07.277Z,100489.03
2022-09-14T09:13:38.352Z,100484.94
2022-09-14T09:16:09.306Z,100485.56
2022-09-14T09:18:49.769Z,100484.38
2022-09-14T09:21:28.825Z,100486.34
2022-09-14T09:24:09.552Z,100487.31
2022-09-14T09:26:36.169Z,100478.63
2022-09-14T09:29:05.840Z,100477.38
2022-09-14T09:31:43.784Z,100490.97
2022-09-14T09:34:16.324Z,100487.09
2022-09-14T09:36:47.925Z,100486.31
2022-09-14T09:39:15.733Z,100481.16
2022-09-14T09:41:51.068Z,100482.38
2022-09-14T09:44:17.716Z,100480.88
2022-09-14T09:46:51.850Z,100483.41
2022-09-14T09:49:24.431Z,100488.69
2022-09-14T09:51:52.496Z,100483.63
2022-09-14T09:54:29.949Z,100487.66
2022-09-14T09:57:03.088Z,100492.31
2022-09-14T09:59:39.590Z,100495.00
2022-09-14T10:02:32.046Z,100487.38
2022-09-14T10:05:07.224Z,100485.34
2022-09-14T10:07:40.515Z,100489.03
2022-09-14T10:10:13.732Z,100486.28
2022-09-14T10:12:47.642Z,100496.63
2022-09-14T10:15:22.911Z,100488.28
2022-09-14T10:18:01.612Z,100490.66
2022-09-14T10:20:28.384Z,100491.47
2022-09-14T10:22:55.028Z,100498.28
2022-09-14T10:25:26.368Z,100494.69
2022-09-14T10:27:56.104Z,100507.50
2022-09-14T10:30:25.502Z,100503.44
2022-09-14T10:33:02.334Z,100502.22
2022-09-14T10:35:41.409Z,100501.13
2022-09-14T10:38:17.725Z,100503.28
2022-09-14T10:40:52.656Z,100514.53
2022-09-14T10:44:00.479Z,100511.88
2022-09-14T10:46:34.580Z,100511.97
2022-09-14T10:49:37.925Z,100510.81
2022-09-14T10:52:19.615Z,100506.41
2022-09-14T10:55:19.953Z,100506.34
2022-09-14T10:58:07.411Z,100509.59
2022-09-14T11:00:46.184Z,100512.84
2022-09-14T11:03:28.400Z,100513.34
2022-09-14T11:06:29.007Z,100515.38
2022-09-14T11:09:02.687Z,100514.47
2022-09-14T11:12:11.055Z,100517.28
2022-09-14T11:14:43.828Z,100518.44
2022-09-14T11:17:23.799Z,100522.41
2022-09-14T11:20:12.053Z,100520.66
2022-09-14T11:22:50.379Z,100514.97
2022-09-14T11:25:40.880Z,100523.78
2022-09-14T11:28:16.172Z,100516.22
2022-09-14T11:30:50.187Z,100516.22
2022-09-14T11:33:31.521Z,100514.69
2022-09-14T11:36:07.344Z,100519.91
2022-09-14T11:38:46.593Z,100516.00
2022-09-14T11:41:20.169Z,100522.44
2022-09-14T11:44:00.063Z,100519.25
2022-09-14T11:46:31.957Z,100522.44
2022-09-14T11:49:17.258Z,100521.59
2022-09-14T11:51:51.562Z,100524.38
2022-09-14T11:54:21.333Z,100538.78
2022-09-14T11:57:01.192Z,100539.19
2022-09-14T11:59:50.410Z,100529.75
2022-09-14T12:02:23.194Z,100528.34
2022-09-14T12:05:05.375Z,100532.59
2022-09-14T12:07:45.512Z,100535.09
2022-09-14T12:10:18.001Z,100531.94
2022-09-14T12:13:05.896Z,100539.94
2022-09-14T12:15:35.767Z,100535.94
2022-09-14T12:18:05.201Z,100542.34
2022-09-14T12:20:37.749Z,100539.91
2022-09-14T12:23:20.709Z,100536.00
2022-09-14T12:26:06.129Z,100541.31
2022-09-14T12:28:35.564Z,100536.97
2022-09-14T12:31:05.177Z,100540.63
2022-09-14T12:33:32.091Z,100542.56
2022-09-14T12:36:05.523Z,100536.19
2022-09-14T12:38:32.353Z,100534.97
2022-09-14T12:41:02.594Z,100546.16
2022-09-14T12:43:35.151Z,100550.53
2022-09-14T12:46:10.908Z,100546.53
2022-09-14T12:48:47.965Z,100549.66
2022-09-14T12:51:14.503Z,100551.16
2022-09-14T12:53:43.836Z,100537.53
2022-09-14T12:56:22.293Z,100539.94
2022-09-14T12:58:59.886Z,100543.66
2022-09-14T13:01:37.587Z,100535.41
2022-09-14T13:04:15.389Z,100534.66
2022-09-14T13:06:47.692Z,100541.91
2022-09-14T13:09:21.939Z,100539.09
2022-09-14T13:11:58.339Z,100533.09
2022-09-14T13:14:32.022Z,100540.66
2022-09-14T13:17:04.614Z,100543.47
2022-09-14T13:19:34.291Z,100543.09
2022-09-14T13:22:02.485Z,100539.50
2022-09-14T13:24:31.313Z,100532.34
2022-09-14T13:27:01.010Z,100533.97
2022-09-14T13:29:28.609Z,100537.97
2022-09-14T13:32:03.002Z,100550.78
2022-09-14T13:34:34.764Z,100555.13
2022-09-14T13:37:02.658Z,100550.31
2022-09-14T13:39:34.614Z,100551.50
2022-09-14T13:42:04.016Z,100544.31
2022-09-14T13:44:45.450Z,100547.50
2022-09-14T13:47:15.636Z,100538.72
2022-09-14T13:49:44.292Z,100548.34
2022-09-14T13:52:25.915Z,100554.38
2022-09-14T13:55:23.729Z,100532.81
2022-09-14T13:58:09.416Z,100537.22
2022-09-14T14:00:57.213Z,100533.63
2022-09-14T14:03:28.694Z,100530.44
2022-09-14T14:05:55.759Z,100539.66
2022-09-14T14:08:35.532Z,100538.84
2022-09-14T14:11:05.975Z,100538.84
2022-09-14T14:13:35.772Z,100545.63
2022-09-14T14:16:26.618Z,100551.63
2022-09-14T14:18:55.015Z,100550.38
2022-09-14T14:21:21.686Z,100549.91
2022-09-14T14:24:12.207Z,100537.91
2022-09-14T14:26:47.231Z,100531.13
2022-09-14T14:29:16.235Z,100532.41
2022-09-14T14:31:43.096Z,100528.84
2022-09-14T14:34:23.068Z,100522.13
2022-09-14T14:36:50.504Z,100522.94
2022-09-14T14:39:19.760Z,100526.56
2022-09-14T14:41:47.694Z,100519.72
2022-09-14T14:44:28.237Z,100518.94
2022-09-14T14:46:56.503Z,100516.94
2022-09-14T14:49:23.882Z,100519.72
2022-09-14T14:51:50.564Z,100518.13
2022-09-14T14:54:18.808Z,100520.13
2022-09-14T14:56:50.749Z,100526.19
2022-09-14T14:59:20.304Z,100519.41
2022-09-14T15:01:51.175Z,100514.59
2022-09-14T15:04:18.842Z,100514.19
2022-09-14T15:06:47.301Z,100516.59
2022-09-14T15:09:25.467Z,100516.19
2022-09-14T15:11:54.495Z,100510.19
2022-09-14T15:14:28.425Z,100514.19
2022-09-14T15:16:59.937Z,100517.78
2022-09-14T15:19:27.004Z,100515.81
2022-09-14T15:21:57.282Z,100518.59
2022-09-14T15:24:26.967Z,100514.19
2022-09-14T15:26:54.376Z,100513.78
2022-09-14T15:29:21.035Z,100514.97
2022-09-14T15:31:47.830Z,100512.16
2022-09-14T15:34:14.569Z,100508.53
2022-09-14T15:36:47.759Z,100511.34
2022-09-14T15:39:15.104Z,100507.75
2022-09-14T15:41:42.539Z,100510.97
2022-09-14T15:44:09.615Z,100502.56
2022-09-14T15:46:36.600Z,100512.97
2022-09-14T15:49:13.332Z,100510.53
2022-09-14T15:51:43.715Z,100509.72
2022-09-14T15:54:11.082Z,100509.72
2022-09-14T15:56:37.965Z,100511.72
2022-09-14T15:59:05.308Z,100517.31
2022-09-14T16:01:32.482Z,100514.91
2022-09-14T16:04:01.368Z,100524.50
2022-09-14T16:06:29.022Z,100517.69
2022-09-14T16:08:55.909Z,100516.88
2022-09-14T16:11:23.906Z,100514.91
2022-09-14T16:13:51.317Z,100517.69
2022-09-14T16:16:20.374Z,100516.47
2022-09-14T16:18:49.870Z,100523.25
2022-09-14T16:21:22.717Z,100526.81
2022-09-14T16:23:59.552Z,100515.59
2022-09-14T16:26:32.302Z,100523.56
2022-09-14T16:28:59.394Z,100528.72
2022-09-14T16:31:32.970Z,100524.31
2022-09-14T16:34:06.098Z,100527.53
2022-09-14T16:36:35.148Z,100531.50
2022-09-14T16:39:09.460Z,100535.47
2022-09-14T16:41:38.151Z,100537.47
2022-09-14T16:44:05.618Z,100544.28
2022-09-14T16:46:33.548Z,100549.88
2022-09-14T16:49:00.497Z,100541.06
2022-09-14T16:51:30.337Z,100540.66
2022-09-14T16:53:59.035Z,100541.44
2022-09-14T16:56:28.349Z,100542.63
2022-09-14T16:58:56.160Z,100537.44
2022-09-14T17:01:25.551Z,100544.22
2022-09-14T17:03:55.327Z,100541.03
2022-09-14T17:06:29.324Z,100539.41
2022-09-14T17:09:02.611Z,100538.19
2022-09-14T17:11:31.892Z,100543.34
2022-09-14T17:13:58.934Z,100549.75
2022-09-14T17:16:27.546Z,100553.75
2022-09-14T17:18:57.806Z,100552.84
2022-09-14T17:21:27.615Z,100550.88
2022-09-14T17:23:54.547Z,100550.44
2022-09-14T17:26:22.674Z,100552.00
2022-09-14T17:28:51.509Z,100557.56
2022-09-14T17:31:23.359Z,100555.94
2022-09-14T17:33:50.105Z,100562.31
2022-09-14T17:36:18.025Z,100553.50
2022-09-14T17:38:45.394Z,100559.06
2022-09-14T17:41:18.549Z,100561.00
2022-09-14T17:43:49.757Z,100567.78
2022-09-14T17:46:17.420Z,100579.31
2022-09-14T17:48:44.082Z,100578.44
2022-09-14T17:51:14.524Z,100580.38
2022-09-14T17:53:43.588Z,100583.16
2022-09-14T17:56:12.190Z,100581.13
2022-09-14T17:58:39.663Z,100588.28
2022-09-14T18:01:24.673Z,100591.03
2022-09-14T18:03:54.268Z,100590.63
2022-09-14T18:06:23.854Z,100579.47
2022-09-14T18:08:55.689Z,100594.19
2022-09-14T18:11:22.929Z,100595.75
2022-09-14T18:13:51.217Z,100591.75
2022-09-14T18:16:19.853Z,100584.56
2022-09-14T18:18:46.978Z,100594.13
2022-09-14T18:21:15.002Z,100596.06
2022-09-14T18:23:43.671Z,100600.44
2022-09-14T18:26:10.352Z,100598.41
2022-09-14T18:28:37.058Z,100599.19
2022-09-14T18:31:09.991Z,100602.34
2022-09-14T18:33:37.888Z,100606.69
2022-09-14T18:36:06.256Z,100607.13
2022-09-14T18:38:33.295Z,100603.91
2022-09-14T18:41:04.977Z,100615.06
2022-09-14T18:43:31.767Z,100616.63
2022-09-14T18:45:58.705Z,100621.81
2022-09-14T18:48:25.389Z,100631.41
2022-09-14T18:50:52.042Z,100634.19
2022-09-14T18:53:18.944Z,100635.75
2022-09-14T18:55:46.286Z,100641.34
2022-09-14T18:58:12.915Z,100641.34
2022-09-14T19:00:45.904Z,100636.94
2022-09-14T19:03:12.964Z,100647.25
2022-09-14T19:05:43.880Z,100645.25
2022-09-14T19:08:13.568Z,100653.56
2022-09-14T19:10:40.328Z,100654.31
2022-09-14T19:13:07.394Z,100662.69
2022-09-14T19:15:34.194Z,100663.50
2022-09-14T19:18:00.945Z,100665.09
2022-09-14T19:20:43.191Z,100664.31
2022-09-14T19:23:14.172Z,100659.47
2022-09-14T19:25:40.838Z,100659.03
2022-09-14T19:28:07.848Z,100669.78
2022-09-14T19:30:36.444Z,100661.00
2022-09-14T19:33:03.120Z,100669.69
2022-09-14T19:35:30.460Z,100668.84
2022-09-14T19:37:58.233Z,100667.59
2022-09-14T19:40:24.959Z,100664.72
2022-09-14T19:42:52.021Z,100681.41
2022-09-14T19:45:19.411Z,100677.72
2022-09-14T19:47:46.067Z,100676.41
2022-09-14T19:50:12.727Z,100675.53
2022-09-14T19:52:39.512Z,100685.00
2022-09-14T19:55:06.514Z,100678.97
2022-09-14T19:57:34.226Z,100676.88
2022-09-14T20:00:01.087Z,100688.69
2022-09-14T20:02:28.141Z,100681.06
2022-09-14T20:04:55.413Z,100682.97
2022-09-14T20:07:22.026Z,100686.88
2022-09-14T20:09:48.838Z,100685.56
2022-09-14T20:12:15.764Z,100693.06
2022-09-14T20:14:42.566Z,100700.56
2022-09-14T20:17:09.206Z,100701.69
2022-09-14T20:19:36.549Z,100702.81
2022-09-14T20:22:03.290Z,100706.34
2022-09-14T20:24:31.668Z,100695.16
2022-09-14T20:27:00.592Z,100699.84
2022-09-14T20:29:30.630Z,100703.34
2022-09-14T20:31:58.216Z,100704.13
2022-09-14T20:34:25.104Z,100695.78
2022-09-14T20:36:53.313Z,100707.66
2022-09-14T20:39:22.106Z,100712.75
2022-09-14T20:41:49.216Z,100714.75
2022-09-14T20:44:16.984Z,100722.72
2022-09-14T20:46:44.605Z,100728.38
2022-09-14T20:49:13.644Z,100728.41
2022-09-14T20:51:41.207Z,100733.97
2022-09-14T20:54:11.817Z,100742.34
2022-09-14T20:56:39.114Z,100744.69
2022-09-14T20:59:07.594Z,100747.47
2022-09-14T21:01:36.047Z,100747.84
2022-09-14T21:04:05.172Z,100752.97
2022-09-14T21:06:31.990Z,100741.84
2022-09-14T21:09:01.018Z,100745.88
2022-09-14T21:11:28.388Z,100753.03
2022-09-14T21:13:57.544Z,100747.03
2022-09-14T21:16:28.250Z,100743.03
2022-09-14T21:18:58.135Z,100750.56
2022-09-14T21:21:26.711Z,100750.13
2022-09-14T21:23:55.896Z,100749.72
2022-09-14T21:26:23.217Z,100760.47
2022-09-14T21:28:55.289Z,100761.69
2022-09-14T21:31:22.291Z,100756.56
2022-09-14T21:33:51.587Z,100763.75
2022-09-14T21:36:24.306Z,100754.66
2022-09-14T21:38:56.019Z,100761.81
2022-09-14T21:41:25.196Z,100759.03
2022-09-14T21:43:51.954Z,100764.63
2022-09-14T21:46:18.955Z,100774.16
2022-09-14T21:48:45.907Z,100779.72
2022-09-14T21:51:32.631Z,100782.13
2022-09-14T21:54:03.427Z,100791.28
2022-09-14T21:56:33.102Z,100788.88
2022-09-14T21:59:07.650Z,100782.09
2022-09-14T22:01:34.718Z,100789.63
2022-09-14T22:04:02.258Z,100791.59
2022-09-14T22:06:30.322Z,100798.78
2022-09-14T22:09:00.194Z,100796.28
2022-09-14T22:11:32.717Z,100816.44
2022-09-14T22:14:13.397Z,100806.03
2022-09-14T22:16:40.867Z,100821.88
2022-09-14T22:19:13.872Z,100821.06
2022-09-14T22:21:40.527Z,100821.34
2022-09-14T22:24:10.770Z,100809.69
2022-09-14T22:26:39.639Z,100816.81
2022-09-14T22:29:08.864Z,100804.44
2022-09-14T22:31:39.714Z,100806.53
2022-09-14T22:34:07.028Z,100806.91
2022-09-14T22:36:35.465Z,100804.19
2022-09-14T22:39:03.285Z,100804.13
2022-09-14T22:41:30.252Z,100804.47
2022-09-14T22:43:57.113Z,100800.09
2022-09-14T22:46:24.755Z,100808.75
2022-09-14T22:48:52.379Z,100803.19
2022-09-14T22:51:22.431Z,100802.44
2022-09-14T22:53:49.996Z,100793.72
2022-09-14T22:56:25.311Z,100812.41
2022-09-14T22:58:52.638Z,100822.81
2022-09-14T23:01:22.877Z,100820.03
2022-09-14T23:03:53.858Z,100822.81
2022-09-14T23:06:20.480Z,100835.09
2022-09-14T23:08:47.297Z,100825.28
2022-09-14T23:11:13.970Z,100833.66
2022-09-14T23:13:42.166Z,100830.06
2022-09-14T23:16:15.291Z,100826.84
2022-09-14T23:18:42.352Z,100815.25
2022-09-14T23:21:09.532Z,100822.00
2022-09-14T23:23:38.141Z,100819.59
2022-09-14T23:26:07.028Z,100814.38
2022-09-14T23:28:33.742Z,100812.41
2022-09-14T23:31:00.949Z,100812.41
2022-09-14T23:33:28.855Z,100818.25
2022-09-14T23:35:56.139Z,100811.88
2022-09-14T23:38:23.450Z,100811.34
2022-09-14T23:40:50.321Z,100809.75
2022-09-14T23:43:18.259Z,100808.13
2022-09-14T23:45:46.288Z,100808.56
2022-09-14T23:48:13.986Z,100816.19
2022-09-14T23:50:40.763Z,100807.03
2022-09-14T23:53:07.912Z,100817.38
2022-09-14T23:55:34.602Z,100825.72
2022-09-14T23:58:01.252Z,100823.72
